sensor_id;sensor_type;location;lat;lon;timestamp;P1;durP1;ratioP1;P2;durP2;ratioP2
19800;SDS011;10060;48.274;12.214;2022-10-13T00:02:53;23.30;;;12.47;;
19800;SDS011;10060;48.274;12.214;2022-10-13T00:05:57;20.67;;;13.13;;
19800;SDS011;10060;48.274;12.214;2022-10-13T00:08:59;20.60;;;12.03;;
19800;SDS011;10060;48.274;12.214;2022-10-13T00:12:01;18.33;;;11.37;;
19800;SDS011;10060;48.274;12.214;2022-10-13T00:15:04;21.83;;;13.67;;
19800;SDS011;10060;48.274;12.214;2022-10-13T00:18:06;23.63;;;15.13;;
19800;SDS011;10060;48.274;12.214;2022-10-13T00:21:11;22.53;;;13.67;;
19800;SDS011;10060;48.274;12.214;2022-10-13T00:24:14;22.33;;;13.17;;
19800;SDS011;10060;48.274;12.214;2022-10-13T00:27:16;20.97;;;12.53;;
19800;SDS011;10060;48.274;12.214;2022-10-13T00:30:18;23.07;;;12.97;;
19800;SDS011;10060;48.274;12.214;2022-10-13T00:33:20;23.13;;;13.20;;
19800;SDS011;10060;48.274;12.214;2022-10-13T00:36:24;23.03;;;13.03;;
19800;SDS011;10060;48.274;12.214;2022-10-13T00:39:26;24.50;;;14.70;;
19800;SDS011;10060;48.274;12.214;2022-10-13T00:42:28;23.00;;;13.73;;
19800;SDS011;10060;48.274;12.214;2022-10-13T00:45:30;20.97;;;13.47;;
19800;SDS011;10060;48.274;12.214;2022-10-13T00:48:32;21.10;;;13.13;;
19800;SDS011;10060;48.274;12.214;2022-10-13T00:51:37;20.93;;;13.03;;
19800;SDS011;10060;48.274;12.214;2022-10-13T00:54:40;19.90;;;12.60;;
19800;SDS011;10060;48.274;12.214;2022-10-13T00:57:42;19.60;;;12.07;;
19800;SDS011;10060;48.274;12.214;2022-10-13T01:00:47;27.23;;;12.90;;
19800;SDS011;10060;48.274;12.214;2022-10-13T01:03:50;22.73;;;12.43;;
19800;SDS011;10060;48.274;12.214;2022-10-13T01:06:53;19.73;;;11.57;;
19800;SDS011;10060;48.274;12.214;2022-10-13T01:09:56;21.30;;;12.67;;
19800;SDS011;10060;48.274;12.214;2022-10-13T01:13:01;25.27;;;12.33;;
19800;SDS011;10060;48.274;12.214;2022-10-13T01:16:06;26.47;;;13.43;;
19800;SDS011;10060;48.274;12.214;2022-10-13T01:19:21;23.70;;;12.57;;
19800;SDS011;10060;48.274;12.214;2022-10-13T01:22:32;26.17;;;12.37;;
19800;SDS011;10060;48.274;12.214;2022-10-13T01:25:40;22.67;;;11.53;;
19800;SDS011;10060;48.274;12.214;2022-10-13T01:28:54;21.23;;;11.53;;
19800;SDS011;10060;48.274;12.214;2022-10-13T01:32:03;20.13;;;11.90;;
19800;SDS011;10060;48.274;12.214;2022-10-13T01:35:08;18.13;;;11.43;;
19800;SDS011;10060;48.274;12.214;2022-10-13T01:38:13;21.63;;;11.63;;
19800;SDS011;10060;48.274;12.214;2022-10-13T01:41:18;22.43;;;12.90;;
19800;SDS011;10060;48.274;12.214;2022-10-13T01:44:23;18.47;;;11.53;;
19800;SDS011;10060;48.274;12.214;2022-10-13T01:47:28;21.37;;;11.70;;
19800;SDS011;10060;48.274;12.214;2022-10-13T01:50:31;22.30;;;11.57;;
19800;SDS011;10060;48.274;12.214;2022-10-13T01:53:33;16.00;;;11.07;;
19800;SDS011;10060;48.274;12.214;2022-10-13T01:56:36;17.50;;;10.93;;
19800;SDS011;10060;48.274;12.214;2022-10-13T01:59:38;15.40;;;10.57;;
19800;SDS011;10060;48.274;12.214;2022-10-13T02:02:44;15.77;;;10.77;;
19800;SDS011;10060;48.274;12.214;2022-10-13T02:05:49;24.60;;;11.23;;
19800;SDS011;10060;48.274;12.214;2022-10-13T02:08:58;13.93;;;9.03;;
19800;SDS011;10060;48.274;12.214;2022-10-13T02:12:04;15.90;;;8.93;;
19800;SDS011;10060;48.274;12.214;2022-10-13T02:15:08;12.43;;;9.23;;
19800;SDS011;10060;48.274;12.214;2022-10-13T02:18:13;11.63;;;8.80;;
19800;SDS011;10060;48.274;12.214;2022-10-13T02:21:16;13.90;;;9.47;;
19800;SDS011;10060;48.274;12.214;2022-10-13T02:24:19;13.57;;;8.87;;
19800;SDS011;10060;48.274;12.214;2022-10-13T02:27:23;10.97;;;8.20;;
19800;SDS011;10060;48.274;12.214;2022-10-13T02:30:27;12.03;;;7.57;;
19800;SDS011;10060;48.274;12.214;2022-10-13T02:33:31;9.33;;;7.00;;
19800;SDS011;10060;48.274;12.214;2022-10-13T02:36:34;8.97;;;6.87;;
19800;SDS011;10060;48.274;12.214;2022-10-13T02:39:36;9.40;;;7.23;;
19800;SDS011;10060;48.274;12.214;2022-10-13T02:42:39;9.70;;;7.10;;
19800;SDS011;10060;48.274;12.214;2022-10-13T02:45:41;9.83;;;6.47;;
19800;SDS011;10060;48.274;12.214;2022-10-13T02:48:45;8.47;;;6.70;;
19800;SDS011;10060;48.274;12.214;2022-10-13T02:51:47;7.33;;;6.10;;
19800;SDS011;10060;48.274;12.214;2022-10-13T02:54:49;11.27;;;6.13;;
19800;SDS011;10060;48.274;12.214;2022-10-13T02:57:52;8.67;;;6.27;;
19800;SDS011;10060;48.274;12.214;2022-10-13T03:01:03;7.17;;;6.30;;
19800;SDS011;10060;48.274;12.214;2022-10-13T03:04:07;7.37;;;6.50;;
19800;SDS011;10060;48.274;12.214;2022-10-13T03:07:11;8.83;;;6.43;;
19800;SDS011;10060;48.274;12.214;2022-10-13T03:10:14;8.60;;;6.70;;
19800;SDS011;10060;48.274;12.214;2022-10-13T03:13:16;10.33;;;7.00;;
19800;SDS011;10060;48.274;12.214;2022-10-13T03:16:19;9.70;;;6.53;;
19800;SDS011;10060;48.274;12.214;2022-10-13T03:19:22;10.83;;;7.27;;
19800;SDS011;10060;48.274;12.214;2022-10-13T03:22:25;9.80;;;7.00;;
19800;SDS011;10060;48.274;12.214;2022-10-13T03:25:27;8.70;;;6.90;;
19800;SDS011;10060;48.274;12.214;2022-10-13T03:28:31;8.37;;;7.03;;
19800;SDS011;10060;48.274;12.214;2022-10-13T03:31:33;12.03;;;8.03;;
19800;SDS011;10060;48.274;12.214;2022-10-13T03:34:39;8.90;;;7.27;;
19800;SDS011;10060;48.274;12.214;2022-10-13T03:37:42;8.07;;;6.20;;
19800;SDS011;10060;48.274;12.214;2022-10-13T03:40:44;14.83;;;7.07;;
19800;SDS011;10060;48.274;12.214;2022-10-13T03:43:49;10.10;;;6.80;;
19800;SDS011;10060;48.274;12.214;2022-10-13T03:46:52;10.97;;;6.87;;
19800;SDS011;10060;48.274;12.214;2022-10-13T03:49:56;12.43;;;6.97;;
19800;SDS011;10060;48.274;12.214;2022-10-13T03:52:58;10.87;;;7.40;;
19800;SDS011;10060;48.274;12.214;2022-10-13T03:56:01;10.37;;;7.00;;
19800;SDS011;10060;48.274;12.214;2022-10-13T03:59:04;10.57;;;7.00;;
19800;SDS011;10060;48.274;12.214;2022-10-13T04:02:07;9.37;;;7.13;;
19800;SDS011;10060;48.274;12.214;2022-10-13T04:05:12;8.03;;;6.57;;
19800;SDS011;10060;48.274;12.214;2022-10-13T04:08:14;8.23;;;6.00;;
19800;SDS011;10060;48.274;12.214;2022-10-13T04:11:19;8.43;;;5.33;;
19800;SDS011;10060;48.274;12.214;2022-10-13T04:14:22;6.80;;;5.47;;
19800;SDS011;10060;48.274;12.214;2022-10-13T04:17:24;9.40;;;6.47;;
19800;SDS011;10060;48.274;12.214;2022-10-13T04:20:28;8.50;;;6.50;;
19800;SDS011;10060;48.274;12.214;2022-10-13T04:23:33;7.97;;;6.93;;
19800;SDS011;10060;48.274;12.214;2022-10-13T04:26:35;9.93;;;7.20;;
19800;SDS011;10060;48.274;12.214;2022-10-13T04:29:38;7.93;;;6.63;;
19800;SDS011;10060;48.274;12.214;2022-10-13T04:32:40;11.67;;;8.33;;
19800;SDS011;10060;48.274;12.214;2022-10-13T04:35:46;12.77;;;7.97;;
19800;SDS011;10060;48.274;12.214;2022-10-13T04:38:50;14.23;;;8.77;;
19800;SDS011;10060;48.274;12.214;2022-10-13T04:41:52;11.87;;;8.23;;
19800;SDS011;10060;48.274;12.214;2022-10-13T04:44:55;12.13;;;8.30;;
19800;SDS011;10060;48.274;12.214;2022-10-13T04:47:59;12.87;;;8.23;;
19800;SDS011;10060;48.274;12.214;2022-10-13T04:51:03;11.40;;;7.70;;
19800;SDS011;10060;48.274;12.214;2022-10-13T04:54:06;13.07;;;9.13;;
19800;SDS011;10060;48.274;12.214;2022-10-13T04:57:10;13.03;;;9.23;;
19800;SDS011;10060;48.274;12.214;2022-10-13T05:00:12;11.57;;;8.40;;
19800;SDS011;10060;48.274;12.214;2022-10-13T05:03:15;16.23;;;9.30;;
19800;SDS011;10060;48.274;12.214;2022-10-13T05:06:20;15.23;;;9.07;;
19800;SDS011;10060;48.274;12.214;2022-10-13T05:09:23;15.80;;;9.20;;
19800;SDS011;10060;48.274;12.214;2022-10-13T05:12:29;16.70;;;9.37;;
19800;SDS011;10060;48.274;12.214;2022-10-13T05:15:32;14.30;;;9.17;;
19800;SDS011;10060;48.274;12.214;2022-10-13T05:18:34;14.10;;;8.70;;
19800;SDS011;10060;48.274;12.214;2022-10-13T05:21:41;14.53;;;9.63;;
19800;SDS011;10060;48.274;12.214;2022-10-13T05:24:43;15.17;;;9.90;;
19800;SDS011;10060;48.274;12.214;2022-10-13T05:27:45;15.40;;;9.63;;
19800;SDS011;10060;48.274;12.214;2022-10-13T05:30:47;15.93;;;9.30;;
19800;SDS011;10060;48.274;12.214;2022-10-13T05:33:50;16.77;;;10.20;;
19800;SDS011;10060;48.274;12.214;2022-10-13T05:36:53;16.80;;;10.20;;
19800;SDS011;10060;48.274;12.214;2022-10-13T05:39:55;17.60;;;10.27;;
19800;SDS011;10060;48.274;12.214;2022-10-13T05:42:57;15.07;;;9.90;;
19800;SDS011;10060;48.274;12.214;2022-10-13T05:46:00;15.70;;;9.83;;
19800;SDS011;10060;48.274;12.214;2022-10-13T05:49:02;16.27;;;10.07;;
19800;SDS011;10060;48.274;12.214;2022-10-13T05:52:06;15.93;;;9.83;;
19800;SDS011;10060;48.274;12.214;2022-10-13T05:55:09;38.83;;;14.40;;
19800;SDS011;10060;48.274;12.214;2022-10-13T05:58:13;18.63;;;10.37;;
19800;SDS011;10060;48.274;12.214;2022-10-13T06:01:16;20.37;;;11.60;;
19800;SDS011;10060;48.274;12.214;2022-10-13T06:04:19;21.17;;;11.00;;
19800;SDS011;10060;48.274;12.214;2022-10-13T06:07:24;15.57;;;10.53;;
19800;SDS011;10060;48.274;12.214;2022-10-13T06:10:26;19.80;;;11.10;;
19800;SDS011;10060;48.274;12.214;2022-10-13T06:13:28;19.23;;;12.23;;
19800;SDS011;10060;48.274;12.214;2022-10-13T06:16:30;22.20;;;12.43;;
19800;SDS011;10060;48.274;12.214;2022-10-13T06:19:32;21.93;;;12.43;;
19800;SDS011;10060;48.274;12.214;2022-10-13T06:22:36;24.33;;;12.83;;
19800;SDS011;10060;48.274;12.214;2022-10-13T06:25:45;22.67;;;13.03;;
19800;SDS011;10060;48.274;12.214;2022-10-13T06:28:47;22.27;;;14.27;;
19800;SDS011;10060;48.274;12.214;2022-10-13T06:31:49;24.27;;;13.60;;
19800;SDS011;10060;48.274;12.214;2022-10-13T06:34:51;23.60;;;13.40;;
19800;SDS011;10060;48.274;12.214;2022-10-13T06:37:54;26.03;;;13.50;;
19800;SDS011;10060;48.274;12.214;2022-10-13T06:41:00;25.27;;;13.23;;
19800;SDS011;10060;48.274;12.214;2022-10-13T06:44:03;21.07;;;12.77;;
19800;SDS011;10060;48.274;12.214;2022-10-13T06:47:05;19.20;;;12.53;;
19800;SDS011;10060;48.274;12.214;2022-10-13T06:50:07;25.67;;;13.27;;
19800;SDS011;10060;48.274;12.214;2022-10-13T06:53:11;22.27;;;12.93;;
19800;SDS011;10060;48.274;12.214;2022-10-13T06:56:13;22.90;;;13.83;;
19800;SDS011;10060;48.274;12.214;2022-10-13T06:59:15;22.50;;;13.20;;
19800;SDS011;10060;48.274;12.214;2022-10-13T07:02:17;23.27;;;13.73;;
19800;SDS011;10060;48.274;12.214;2022-10-13T07:05:19;27.30;;;14.33;;
19800;SDS011;10060;48.274;12.214;2022-10-13T07:08:22;24.43;;;13.13;;
19800;SDS011;10060;48.274;12.214;2022-10-13T07:11:25;23.00;;;12.97;;
19800;SDS011;10060;48.274;12.214;2022-10-13T07:14:27;20.57;;;12.87;;
19800;SDS011;10060;48.274;12.214;2022-10-13T07:17:29;20.50;;;13.77;;
19800;SDS011;10060;48.274;12.214;2022-10-13T07:20:31;26.10;;;13.63;;
19800;SDS011;10060;48.274;12.214;2022-10-13T07:23:34;23.73;;;13.83;;
19800;SDS011;10060;48.274;12.214;2022-10-13T07:26:36;23.10;;;13.73;;
19800;SDS011;10060;48.274;12.214;2022-10-13T07:29:38;25.00;;;14.13;;
19800;SDS011;10060;48.274;12.214;2022-10-13T07:32:41;23.77;;;13.63;;
19800;SDS011;10060;48.274;12.214;2022-10-13T07:35:43;30.10;;;14.10;;
19800;SDS011;10060;48.274;12.214;2022-10-13T07:38:46;26.47;;;13.77;;
19800;SDS011;10060;48.274;12.214;2022-10-13T07:41:48;28.50;;;13.50;;
19800;SDS011;10060;48.274;12.214;2022-10-13T07:44:50;21.27;;;13.47;;
19800;SDS011;10060;48.274;12.214;2022-10-13T07:47:52;26.13;;;15.50;;
19800;SDS011;10060;48.274;12.214;2022-10-13T07:50:54;27.20;;;14.07;;
19800;SDS011;10060;48.274;12.214;2022-10-13T07:53:58;24.27;;;14.40;;
19800;SDS011;10060;48.274;12.214;2022-10-13T07:57:00;25.40;;;14.03;;
19800;SDS011;10060;48.274;12.214;2022-10-13T08:00:03;23.60;;;14.03;;
19800;SDS011;10060;48.274;12.214;2022-10-13T08:03:06;25.70;;;13.80;;
19800;SDS011;10060;48.274;12.214;2022-10-13T08:06:08;27.90;;;14.90;;
19800;SDS011;10060;48.274;12.214;2022-10-13T08:09:12;23.63;;;13.57;;
19800;SDS011;10060;48.274;12.214;2022-10-13T08:12:14;25.37;;;14.37;;
19800;SDS011;10060;48.274;12.214;2022-10-13T08:15:16;24.73;;;14.10;;
19800;SDS011;10060;48.274;12.214;2022-10-13T08:18:18;26.97;;;14.40;;
19800;SDS011;10060;48.274;12.214;2022-10-13T08:21:20;24.73;;;13.47;;
19800;SDS011;10060;48.274;12.214;2022-10-13T08:24:23;25.23;;;13.80;;
19800;SDS011;10060;48.274;12.214;2022-10-13T08:27:26;27.37;;;14.53;;
19800;SDS011;10060;48.274;12.214;2022-10-13T08:30:29;25.53;;;14.13;;
19800;SDS011;10060;48.274;12.214;2022-10-13T08:33:31;27.17;;;14.77;;
19800;SDS011;10060;48.274;12.214;2022-10-13T08:36:33;28.43;;;14.80;;
19800;SDS011;10060;48.274;12.214;2022-10-13T08:39:36;26.40;;;13.77;;
19800;SDS011;10060;48.274;12.214;2022-10-13T08:42:40;21.57;;;13.83;;
19800;SDS011;10060;48.274;12.214;2022-10-13T08:45:44;26.90;;;14.10;;
19800;SDS011;10060;48.274;12.214;2022-10-13T08:48:46;26.23;;;12.83;;
19800;SDS011;10060;48.274;12.214;2022-10-13T08:51:48;26.67;;;13.83;;
19800;SDS011;10060;48.274;12.214;2022-10-13T08:54:52;28.73;;;14.07;;
19800;SDS011;10060;48.274;12.214;2022-10-13T08:57:54;26.13;;;13.07;;
19800;SDS011;10060;48.274;12.214;2022-10-13T09:00:59;26.87;;;13.97;;
19800;SDS011;10060;48.274;12.214;2022-10-13T09:07:22;21.57;;;12.87;;
19800;SDS011;10060;48.274;12.214;2022-10-13T09:10:26;24.20;;;13.47;;
19800;SDS011;10060;48.274;12.214;2022-10-13T09:13:28;23.87;;;12.63;;
19800;SDS011;10060;48.274;12.214;2022-10-13T09:16:33;24.93;;;13.87;;
19800;SDS011;10060;48.274;12.214;2022-10-13T09:19:36;25.73;;;14.70;;
19800;SDS011;10060;48.274;12.214;2022-10-13T09:22:39;27.63;;;13.63;;
19800;SDS011;10060;48.274;12.214;2022-10-13T09:25:44;24.17;;;13.57;;
19800;SDS011;10060;48.274;12.214;2022-10-13T09:28:46;21.80;;;12.37;;
19800;SDS011;10060;48.274;12.214;2022-10-13T09:31:49;20.13;;;12.60;;
19800;SDS011;10060;48.274;12.214;2022-10-13T09:34:51;27.20;;;13.17;;
19800;SDS011;10060;48.274;12.214;2022-10-13T09:38:01;25.33;;;13.40;;
19800;SDS011;10060;48.274;12.214;2022-10-13T09:41:05;24.23;;;13.07;;
19800;SDS011;10060;48.274;12.214;2022-10-13T09:44:09;24.47;;;13.60;;
19800;SDS011;10060;48.274;12.214;2022-10-13T09:47:16;22.20;;;13.67;;
19800;SDS011;10060;48.274;12.214;2022-10-13T09:50:19;22.57;;;13.23;;
19800;SDS011;10060;48.274;12.214;2022-10-13T09:53:24;29.83;;;15.07;;
19800;SDS011;10060;48.274;12.214;2022-10-13T09:56:30;22.27;;;14.07;;
19800;SDS011;10060;48.274;12.214;2022-10-13T09:59:35;22.30;;;13.27;;
19800;SDS011;10060;48.274;12.214;2022-10-13T10:02:40;22.70;;;13.63;;
19800;SDS011;10060;48.274;12.214;2022-10-13T10:05:46;25.97;;;13.03;;
19800;SDS011;10060;48.274;12.214;2022-10-13T10:08:52;23.60;;;13.00;;
19800;SDS011;10060;48.274;12.214;2022-10-13T10:11:57;21.80;;;12.60;;
19800;SDS011;10060;48.274;12.214;2022-10-13T10:14:59;23.13;;;13.33;;
19800;SDS011;10060;48.274;12.214;2022-10-13T10:18:02;26.47;;;13.43;;
19800;SDS011;10060;48.274;12.214;2022-10-13T10:21:07;22.37;;;13.20;;
19800;SDS011;10060;48.274;12.214;2022-10-13T10:24:15;23.97;;;13.17;;
19800;SDS011;10060;48.274;12.214;2022-10-13T10:27:24;24.08;;;12.63;;
19800;SDS011;10060;48.274;12.214;2022-10-13T10:30:28;26.03;;;13.20;;
19800;SDS011;10060;48.274;12.214;2022-10-13T10:33:34;21.10;;;13.10;;
19800;SDS011;10060;48.274;12.214;2022-10-13T10:36:42;31.03;;;13.50;;
19800;SDS011;10060;48.274;12.214;2022-10-13T10:39:48;24.90;;;13.07;;
19800;SDS011;10060;48.274;12.214;2022-10-13T10:42:56;23.83;;;13.53;;
19800;SDS011;10060;48.274;12.214;2022-10-13T10:46:00;23.65;;;12.27;;
19800;SDS011;10060;48.274;12.214;2022-10-13T10:49:10;24.00;;;12.07;;
19800;SDS011;10060;48.274;12.214;2022-10-13T10:52:15;20.35;;;12.32;;
19800;SDS011;10060;48.274;12.214;2022-10-13T10:55:22;20.67;;;13.63;;
19800;SDS011;10060;48.274;12.214;2022-10-13T10:58:30;26.83;;;12.98;;
19800;SDS011;10060;48.274;12.214;2022-10-13T11:01:35;21.83;;;12.32;;
19800;SDS011;10060;48.274;12.214;2022-10-13T11:04:38;22.00;;;12.63;;
19800;SDS011;10060;48.274;12.214;2022-10-13T11:14:29;22.45;;;12.95;;
19800;SDS011;10060;48.274;12.214;2022-10-13T11:17:32;25.67;;;12.65;;
19800;SDS011;10060;48.274;12.214;2022-10-13T11:20:47;21.15;;;13.45;;
19800;SDS011;10060;48.274;12.214;2022-10-13T11:23:50;22.50;;;12.63;;
19800;SDS011;10060;48.274;12.214;2022-10-13T11:26:52;21.60;;;12.40;;
19800;SDS011;10060;48.274;12.214;2022-10-13T11:29:56;23.27;;;13.82;;
19800;SDS011;10060;48.274;12.214;2022-10-13T11:32:58;26.90;;;13.15;;
19800;SDS011;10060;48.274;12.214;2022-10-13T11:43:10;23.45;;;12.98;;
19800;SDS011;10060;48.274;12.214;2022-10-13T11:46:25;26.25;;;13.15;;
19800;SDS011;10060;48.274;12.214;2022-10-13T11:52:58;20.98;;;11.57;;
19800;SDS011;10060;48.274;12.214;2022-10-13T11:56:04;28.65;;;12.45;;
19800;SDS011;10060;48.274;12.214;2022-10-13T11:59:17;34.50;;;13.80;;
19800;SDS011;10060;48.274;12.214;2022-10-13T12:02:22;20.92;;;12.68;;
19800;SDS011;10060;48.274;12.214;2022-10-13T12:05:25;21.67;;;11.80;;
19800;SDS011;10060;48.274;12.214;2022-10-13T12:08:27;24.92;;;13.50;;
19800;SDS011;10060;48.274;12.214;2022-10-13T12:11:30;21.60;;;12.52;;
19800;SDS011;10060;48.274;12.214;2022-10-13T12:14:34;19.60;;;11.77;;
19800;SDS011;10060;48.274;12.214;2022-10-13T12:17:42;22.25;;;12.05;;
19800;SDS011;10060;48.274;12.214;2022-10-13T12:20:50;19.20;;;11.45;;
19800;SDS011;10060;48.274;12.214;2022-10-13T12:24:04;21.50;;;11.93;;
19800;SDS011;10060;48.274;12.214;2022-10-13T12:27:08;17.67;;;10.93;;
19800;SDS011;10060;48.274;12.214;2022-10-13T12:30:18;19.92;;;11.38;;
19800;SDS011;10060;48.274;12.214;2022-10-13T12:33:25;22.83;;;10.65;;
19800;SDS011;10060;48.274;12.214;2022-10-13T12:36:28;20.48;;;10.32;;
19800;SDS011;10060;48.274;12.214;2022-10-13T12:39:31;20.30;;;10.40;;
19800;SDS011;10060;48.274;12.214;2022-10-13T12:42:34;17.98;;;10.40;;
19800;SDS011;10060;48.274;12.214;2022-10-13T12:45:37;22.00;;;9.98;;
19800;SDS011;10060;48.274;12.214;2022-10-13T12:48:41;22.67;;;9.43;;
19800;SDS011;10060;48.274;12.214;2022-10-13T12:51:45;20.77;;;9.70;;
19800;SDS011;10060;48.274;12.214;2022-10-13T12:54:48;17.05;;;9.82;;
19800;SDS011;10060;48.274;12.214;2022-10-13T12:57:51;17.30;;;9.82;;
19800;SDS011;10060;48.274;12.214;2022-10-13T13:00:58;19.40;;;11.52;;
19800;SDS011;10060;48.274;12.214;2022-10-13T13:04:14;17.88;;;9.98;;
19800;SDS011;10060;48.274;12.214;2022-10-13T13:07:21;16.35;;;9.90;;
19800;SDS011;10060;48.274;12.214;2022-10-13T13:10:26;16.85;;;9.88;;
19800;SDS011;10060;48.274;12.214;2022-10-13T13:13:28;29.00;;;10.98;;
19800;SDS011;10060;48.274;12.214;2022-10-13T13:16:31;19.02;;;10.10;;
19800;SDS011;10060;48.274;12.214;2022-10-13T13:19:34;22.13;;;11.68;;
19800;SDS011;10060;48.274;12.214;2022-10-13T13:22:37;21.65;;;10.38;;
19800;SDS011;10060;48.274;12.214;2022-10-13T13:25:39;22.27;;;11.40;;
19800;SDS011;10060;48.274;12.214;2022-10-13T13:28:42;21.15;;;10.73;;
19800;SDS011;10060;48.274;12.214;2022-10-13T13:31:45;20.85;;;10.98;;
19800;SDS011;10060;48.274;12.214;2022-10-13T13:34:48;22.38;;;11.10;;
19800;SDS011;10060;48.274;12.214;2022-10-13T13:37:50;18.98;;;11.32;;
19800;SDS011;10060;48.274;12.214;2022-10-13T13:40:53;19.20;;;11.38;;
19800;SDS011;10060;48.274;12.214;2022-10-13T13:43:56;18.73;;;11.60;;
19800;SDS011;10060;48.274;12.214;2022-10-13T13:46:58;24.55;;;10.98;;
19800;SDS011;10060;48.274;12.214;2022-10-13T13:50:01;19.63;;;11.18;;
19800;SDS011;10060;48.274;12.214;2022-10-13T13:53:04;26.33;;;11.48;;
19800;SDS011;10060;48.274;12.214;2022-10-13T13:56:07;23.45;;;10.63;;
19800;SDS011;10060;48.274;12.214;2022-10-13T13:59:10;19.10;;;10.68;;
19800;SDS011;10060;48.274;12.214;2022-10-13T14:02:13;25.25;;;10.95;;
19800;SDS011;10060;48.274;12.214;2022-10-13T14:05:17;18.58;;;10.68;;
19800;SDS011;10060;48.274;12.214;2022-10-13T14:08:19;18.60;;;9.93;;
19800;SDS011;10060;48.274;12.214;2022-10-13T14:11:21;21.30;;;11.10;;
19800;SDS011;10060;48.274;12.214;2022-10-13T14:14:23;16.42;;;9.95;;
19800;SDS011;10060;48.274;12.214;2022-10-13T14:17:25;21.77;;;11.80;;
19800;SDS011;10060;48.274;12.214;2022-10-13T14:20:29;15.38;;;9.95;;
19800;SDS011;10060;48.274;12.214;2022-10-13T14:23:31;19.08;;;11.20;;
19800;SDS011;10060;48.274;12.214;2022-10-13T14:26:33;21.92;;;10.55;;
19800;SDS011;10060;48.274;12.214;2022-10-13T14:29:35;21.55;;;11.38;;
19800;SDS011;10060;48.274;12.214;2022-10-13T14:32:38;20.27;;;10.57;;
19800;SDS011;10060;48.274;12.214;2022-10-13T14:35:41;19.77;;;10.55;;
19800;SDS011;10060;48.274;12.214;2022-10-13T14:38:43;18.13;;;11.00;;
19800;SDS011;10060;48.274;12.214;2022-10-13T14:41:46;23.35;;;10.45;;
19800;SDS011;10060;48.274;12.214;2022-10-13T14:44:48;19.27;;;11.07;;
19800;SDS011;10060;48.274;12.214;2022-10-13T14:47:50;26.00;;;10.35;;
19800;SDS011;10060;48.274;12.214;2022-10-13T14:50:54;20.55;;;10.38;;
19800;SDS011;10060;48.274;12.214;2022-10-13T14:53:56;18.95;;;9.52;;
19800;SDS011;10060;48.274;12.214;2022-10-13T14:57:00;19.52;;;9.00;;
19800;SDS011;10060;48.274;12.214;2022-10-13T15:00:05;16.30;;;9.52;;
19800;SDS011;10060;48.274;12.214;2022-10-13T15:03:07;26.98;;;10.38;;
19800;SDS011;10060;48.274;12.214;2022-10-13T15:06:11;18.83;;;9.50;;
19800;SDS011;10060;48.274;12.214;2022-10-13T15:09:14;18.88;;;10.32;;
19800;SDS011;10060;48.274;12.214;2022-10-13T15:12:16;20.52;;;9.13;;
19800;SDS011;10060;48.274;12.214;2022-10-13T15:15:18;15.68;;;9.55;;
19800;SDS011;10060;48.274;12.214;2022-10-13T15:18:20;19.50;;;9.52;;
19800;SDS011;10060;48.274;12.214;2022-10-13T15:21:24;20.02;;;9.07;;
19800;SDS011;10060;48.274;12.214;2022-10-13T15:24:26;16.20;;;9.95;;
19800;SDS011;10060;48.274;12.214;2022-10-13T15:27:28;20.23;;;10.23;;
19800;SDS011;10060;48.274;12.214;2022-10-13T15:30:31;24.60;;;11.43;;
19800;SDS011;10060;48.274;12.214;2022-10-13T15:33:33;20.13;;;9.60;;
19800;SDS011;10060;48.274;12.214;2022-10-13T15:36:37;20.58;;;10.75;;
19800;SDS011;10060;48.274;12.214;2022-10-13T15:39:39;17.42;;;9.40;;
19800;SDS011;10060;48.274;12.214;2022-10-13T15:42:41;24.30;;;9.90;;
19800;SDS011;10060;48.274;12.214;2022-10-13T15:45:44;25.75;;;10.02;;
19800;SDS011;10060;48.274;12.214;2022-10-13T15:48:53;18.95;;;9.23;;
19800;SDS011;10060;48.274;12.214;2022-10-13T15:51:57;20.13;;;8.77;;
19800;SDS011;10060;48.274;12.214;2022-10-13T15:54:59;16.35;;;9.32;;
19800;SDS011;10060;48.274;12.214;2022-10-13T15:58:01;18.33;;;10.98;;
19800;SDS011;10060;48.274;12.214;2022-10-13T16:01:05;16.25;;;10.43;;
19800;SDS011;10060;48.274;12.214;2022-10-13T16:04:08;18.85;;;10.18;;
19800;SDS011;10060;48.274;12.214;2022-10-13T16:07:11;22.13;;;11.82;;
19800;SDS011;10060;48.274;12.214;2022-10-13T16:10:13;21.63;;;11.85;;
19800;SDS011;10060;48.274;12.214;2022-10-13T16:13:16;16.67;;;11.18;;
19800;SDS011;10060;48.274;12.214;2022-10-13T16:16:18;18.13;;;10.88;;
19800;SDS011;10060;48.274;12.214;2022-10-13T16:19:21;17.13;;;10.95;;
19800;SDS011;10060;48.274;12.214;2022-10-13T16:22:24;23.08;;;11.70;;
19800;SDS011;10060;48.274;12.214;2022-10-13T16:25:27;21.15;;;11.80;;
19800;SDS011;10060;48.274;12.214;2022-10-13T16:28:30;19.65;;;11.25;;
19800;SDS011;10060;48.274;12.214;2022-10-13T16:31:33;25.48;;;12.95;;
19800;SDS011;10060;48.274;12.214;2022-10-13T16:34:35;20.15;;;11.40;;
19800;SDS011;10060;48.274;12.214;2022-10-13T16:37:38;19.23;;;11.05;;
19800;SDS011;10060;48.274;12.214;2022-10-13T16:40:40;21.70;;;11.77;;
19800;SDS011;10060;48.274;12.214;2022-10-13T16:43:43;26.02;;;12.80;;
19800;SDS011;10060;48.274;12.214;2022-10-13T16:46:45;22.90;;;11.18;;
19800;SDS011;10060;48.274;12.214;2022-10-13T16:49:48;16.48;;;11.10;;
19800;SDS011;10060;48.274;12.214;2022-10-13T16:52:52;23.92;;;11.02;;
19800;SDS011;10060;48.274;12.214;2022-10-13T16:55:54;16.95;;;11.00;;
19800;SDS011;10060;48.274;12.214;2022-10-13T16:58:57;21.40;;;12.20;;
19800;SDS011;10060;48.274;12.214;2022-10-13T17:01:59;18.27;;;10.68;;
19800;SDS011;10060;48.274;12.214;2022-10-13T17:05:02;22.35;;;11.45;;
19800;SDS011;10060;48.274;12.214;2022-10-13T17:08:05;23.45;;;12.35;;
19800;SDS011;10060;48.274;12.214;2022-10-13T17:11:08;21.75;;;11.75;;
19800;SDS011;10060;48.274;12.214;2022-10-13T17:14:11;20.00;;;12.27;;
19800;SDS011;10060;48.274;12.214;2022-10-13T17:17:13;23.42;;;11.85;;
19800;SDS011;10060;48.274;12.214;2022-10-13T17:20:15;23.20;;;13.18;;
19800;SDS011;10060;48.274;12.214;2022-10-13T17:23:19;24.98;;;11.55;;
19800;SDS011;10060;48.274;12.214;2022-10-13T17:26:21;18.23;;;11.52;;
19800;SDS011;10060;48.274;12.214;2022-10-13T17:29:23;21.65;;;11.65;;
19800;SDS011;10060;48.274;12.214;2022-10-13T17:32:26;21.70;;;12.10;;
19800;SDS011;10060;48.274;12.214;2022-10-13T17:35:29;23.80;;;11.93;;
19800;SDS011;10060;48.274;12.214;2022-10-13T17:38:32;18.90;;;12.05;;
19800;SDS011;10060;48.274;12.214;2022-10-13T17:41:34;18.40;;;10.57;;
19800;SDS011;10060;48.274;12.214;2022-10-13T17:44:36;33.25;;;12.95;;
19800;SDS011;10060;48.274;12.214;2022-10-13T17:47:41;27.50;;;12.05;;
19800;SDS011;10060;48.274;12.214;2022-10-13T17:50:47;19.75;;;12.55;;
19800;SDS011;10060;48.274;12.214;2022-10-13T17:53:51;24.60;;;14.63;;
19800;SDS011;10060;48.274;12.214;2022-10-13T17:56:53;22.90;;;12.35;;
19800;SDS011;10060;48.274;12.214;2022-10-13T17:59:56;22.08;;;12.30;;
19800;SDS011;10060;48.274;12.214;2022-10-13T18:02:58;24.97;;;13.00;;
19800;SDS011;10060;48.274;12.214;2022-10-13T18:06:00;20.13;;;12.55;;